Time;durP1;ratioP1;P1;durP2;ratioP2;P2;SDS_P1;SDS_P2;PMS_P1;PMS_P2;Temp;Humidity;BMP_temperature;BMP_pressure;BME280_temperature;BME280_humidity;BME280_pressure;Samples;Min_cycle;Max_cycle;Signal;HPM_P1;HPM_P2
2024/01/14 00:02:10;;;;;;;64.07;32.42;;;4.50;99.90;;;;;;5001482;28;20104;-81
2024/01/14 00:04:35;;;;;;;61.70;30.95;;;4.50;99.90;;;;;;5003440;28;20041;-81
2024/01/14 00:07:01;;;;;;;62.28;31.33;;;4.50;99.90;;;;;;5003823;28;20416;-81
2024/01/14 00:09:27;;;;;;;65.07;33.38;;;4.50;99.90;;;;;;4999130;28;20045;-80
2024/01/14 00:11:52;;;;;;;57.97;30.73;;;4.50;99.90;;;;;;5004142;28;20180;-81
2024/01/14 00:14:18;;;;;;;54.65;29.17;;;4.50;99.90;;;;;;5001813;28;20022;-80
2024/01/14 00:16:44;;;;;;;61.20;33.15;;;4.60;99.90;;;;;;4999347;28;20097;-80
2024/01/14 00:19:10;;;;;;;57.83;30.63;;;4.60;99.90;;;;;;4996547;28;20049;-80
2024/01/14 00:21:36;;;;;;;63.15;30.65;;;4.60;99.90;;;;;;4981346;28;20121;-80
2024/01/14 00:24:05;;;;;;;60.25;31.13;;;4.60;99.90;;;;;;4980080;28;20070;-79
2024/01/14 00:26:30;;;;;;;62.13;31.92;;;4.60;99.90;;;;;;4996283;28;20061;-80
2024/01/14 00:28:58;;;;;;;59.05;30.95;;;4.70;99.90;;;;;;4995478;28;20461;-80
2024/01/14 00:31:24;;;;;;;56.75;29.70;;;4.70;99.90;;;;;;4996552;28;20109;-81
2024/01/14 00:33:51;;;;;;;50.95;28.33;;;4.70;99.90;;;;;;4997039;28;20054;-80
2024/01/14 00:36:17;;;;;;;51.42;27.27;;;4.60;99.90;;;;;;4998054;28;20354;-80
2024/01/14 00:38:44;;;;;;;53.28;29.73;;;4.70;99.90;;;;;;5003950;28;20034;-82
2024/01/14 00:41:10;;;;;;;50.28;26.67;;;4.70;99.90;;;;;;4998861;28;20113;-82
2024/01/14 00:43:36;;;;;;;47.95;25.38;;;4.60;99.90;;;;;;4999007;28;20031;-81
2024/01/14 00:46:02;;;;;;;47.10;25.02;;;4.60;99.90;;;;;;4999270;28;20037;-80
2024/01/14 00:48:31;;;;;;;40.75;22.52;;;4.60;99.90;;;;;;4996847;28;20393;-78
2024/01/14 00:50:57;;;;;;;40.15;22.10;;;4.60;99.90;;;;;;4995728;28;20113;-79
2024/01/14 00:53:23;;;;;;;44.80;24.98;;;4.60;99.90;;;;;;4994148;28;20185;-78
2024/01/14 00:55:49;;;;;;;41.20;23.10;;;4.60;99.90;;;;;;4995502;28;20077;-79
2024/01/14 00:58:15;;;;;;;48.55;24.77;;;4.60;99.90;;;;;;4996154;28;20023;-80
2024/01/14 01:00:42;;;;;;;45.70;23.92;;;4.60;99.90;;;;;;4993940;28;20022;-79
2024/01/14 01:03:07;;;;;;;47.58;26.25;;;4.60;99.90;;;;;;4996902;28;20117;-80
2024/01/14 01:05:33;;;;;;;50.20;26.52;;;4.70;99.90;;;;;;4995841;28;20110;-80
2024/01/14 01:07:58;;;;;;;52.83;27.45;;;4.60;99.90;;;;;;4980042;28;20489;-80
2024/01/14 01:10:24;;;;;;;50.92;26.33;;;4.60;99.90;;;;;;4998552;28;20093;-80
2024/01/14 01:12:50;;;;;;;52.60;26.15;;;4.60;99.90;;;;;;4995036;28;20037;-82
2024/01/14 01:15:16;;;;;;;53.35;26.98;;;4.70;99.90;;;;;;4994685;28;20077;-82
2024/01/14 01:17:41;;;;;;;56.28;28.88;;;4.70;99.90;;;;;;4994692;28;20027;-80
2024/01/14 01:20:08;;;;;;;59.55;30.38;;;4.70;99.90;;;;;;4994957;28;20027;-79
2024/01/14 01:22:34;;;;;;;60.13;29.75;;;4.70;99.90;;;;;;4994794;28;20058;-80
2024/01/14 01:25:00;;;;;;;60.88;30.77;;;4.70;99.90;;;;;;4994368;28;20137;-79
2024/01/14 01:27:26;;;;;;;65.13;31.23;;;4.60;99.90;;;;;;4994982;28;20105;-80
2024/01/14 01:29:52;;;;;;;60.75;30.58;;;4.60;99.90;;;;;;4996183;28;20034;-80
2024/01/14 01:32:18;;;;;;;68.80;33.22;;;4.60;99.90;;;;;;4996781;28;20103;-78
2024/01/14 01:34:44;;;;;;;66.43;33.72;;;4.60;99.90;;;;;;4993746;28;20473;-81
2024/01/14 01:37:10;;;;;;;66.97;32.60;;;4.60;99.90;;;;;;4998896;28;20034;-79
2024/01/14 01:39:35;;;;;;;64.15;31.77;;;4.60;99.90;;;;;;5015568;28;20054;-80
2024/01/14 01:42:01;;;;;;;62.95;30.52;;;4.60;99.90;;;;;;5015124;28;20033;-80
2024/01/14 01:44:27;;;;;;;60.42;29.63;;;4.70;99.90;;;;;;5007848;28;20031;-80
2024/01/14 01:46:54;;;;;;;60.30;29.35;;;4.70;99.90;;;;;;4997772;28;20065;-80
2024/01/14 01:49:20;;;;;;;62.90;31.25;;;4.70;99.90;;;;;;5000545;28;20110;-80
2024/01/14 01:51:48;;;;;;;68.82;33.58;;;4.70;99.90;;;;;;5006592;28;20018;-81
2024/01/14 01:54:18;;;;;;;68.32;33.35;;;4.80;99.90;;;;;;5015197;28;20011;-80
2024/01/14 01:56:44;;;;;;;63.55;33.28;;;4.80;99.90;;;;;;5017680;28;20062;-81
2024/01/14 01:59:12;;;;;;;62.80;31.98;;;4.80;99.90;;;;;;5013184;28;20054;-81
2024/01/14 02:01:38;;;;;;;61.20;30.15;;;4.80;99.90;;;;;;5018438;28;20010;-82
2024/01/14 02:04:06;;;;;;;60.40;29.55;;;4.80;99.90;;;;;;5016626;28;20021;-81
2024/01/14 02:06:32;;;;;;;57.53;29.83;;;4.80;99.90;;;;;;5017705;28;20061;-82
2024/01/14 02:08:58;;;;;;;57.25;30.05;;;4.90;99.90;;;;;;5013471;28;20040;-81
2024/01/14 02:11:24;;;;;;;58.70;30.23;;;4.80;99.90;;;;;;5017629;28;20030;-82
2024/01/14 02:13:49;;;;;;;62.50;30.33;;;4.80;99.90;;;;;;5016020;28;20018;-83
2024/01/14 02:16:15;;;;;;;62.35;31.45;;;4.90;99.90;;;;;;5014738;28;20045;-81
2024/01/14 02:18:41;;;;;;;67.22;34.67;;;4.90;99.90;;;;;;5012399;28;20038;-82
2024/01/14 02:21:10;;;;;;;70.20;35.22;;;4.90;99.90;;;;;;5013403;28;20034;-82
2024/01/14 02:23:41;;;;;;;73.22;37.10;;;4.90;99.90;;;;;;5006397;28;20037;-81
2024/01/14 02:26:07;;;;;;;73.57;36.28;;;4.90;99.90;;;;;;5014334;28;20041;-82
2024/01/14 02:28:33;;;;;;;67.63;35.35;;;4.90;99.90;;;;;;5007351;28;20039;-81
2024/01/14 02:30:59;;;;;;;71.85;36.58;;;4.90;99.90;;;;;;5006742;28;20030;-82
2024/01/14 02:33:25;;;;;;;77.35;36.08;;;4.90;99.90;;;;;;4999763;28;20037;-82
2024/01/14 02:35:51;;;;;;;69.47;35.00;;;4.90;99.90;;;;;;4994929;28;20072;-82
2024/01/14 02:38:16;;;;;;;74.28;37.35;;;4.90;99.90;;;;;;4995473;28;20122;-81
2024/01/14 02:40:42;;;;;;;69.63;35.13;;;5.00;99.90;;;;;;4996827;28;20041;-81
2024/01/14 02:43:08;;;;;;;69.60;35.92;;;5.00;99.90;;;;;;4997100;28;20511;-81
2024/01/14 02:45:33;;;;;;;72.05;36.58;;;5.00;99.90;;;;;;4998150;28;20042;-81
2024/01/14 02:47:59;;;;;;;70.57;37.35;;;5.00;99.90;;;;;;4994122;28;20034;-81
2024/01/14 02:50:25;;;;;;;70.80;37.35;;;5.00;99.90;;;;;;4999016;28;20098;-81
2024/01/14 02:52:50;;;;;;;77.55;38.08;;;5.00;99.90;;;;;;4983026;28;20057;-82
2024/01/14 02:55:16;;;;;;;71.80;37.60;;;5.00;99.90;;;;;;5005880;28;20046;-81
2024/01/14 02:57:42;;;;;;;73.35;38.53;;;5.00;99.90;;;;;;5001896;28;20026;-79
2024/01/14 03:00:09;;;;;;;72.05;36.40;;;4.90;99.90;;;;;;4993276;28;20034;-79
2024/01/14 03:02:37;;;;;;;72.65;37.72;;;4.90;99.90;;;;;;4994670;28;20475;-79
2024/01/14 03:05:03;;;;;;;71.18;38.28;;;4.80;99.90;;;;;;4994176;28;20030;-79
2024/01/14 03:07:29;;;;;;;67.30;35.75;;;4.80;99.90;;;;;;4993572;28;20042;-79
2024/01/14 03:09:54;;;;;;;71.28;36.10;;;4.80;99.90;;;;;;4993413;28;20030;-79
2024/01/14 03:12:20;;;;;;;67.55;35.47;;;4.80;99.90;;;;;;4993294;28;20109;-79
2024/01/14 03:14:45;;;;;;;66.53;36.63;;;4.70;99.90;;;;;;4992618;28;20491;-79
2024/01/14 03:17:11;;;;;;;72.95;37.10;;;4.70;99.90;;;;;;4993960;28;20043;-79
2024/01/14 03:19:37;;;;;;;75.53;37.85;;;4.70;99.90;;;;;;4994271;28;20536;-78
2024/01/14 03:22:02;;;;;;;71.93;37.08;;;4.70;99.90;;;;;;4993452;28;20038;-79
2024/01/14 03:24:28;;;;;;;65.63;35.03;;;4.70;99.90;;;;;;4993986;28;20051;-79
2024/01/14 03:26:54;;;;;;;71.65;38.30;;;4.70;99.90;;;;;;4992835;28;20507;-79
2024/01/14 03:29:19;;;;;;;74.18;38.22;;;4.70;99.90;;;;;;4993321;28;20035;-79
2024/01/14 03:31:45;;;;;;;72.70;39.58;;;4.70;99.90;;;;;;4995367;28;20076;-80
2024/01/14 03:34:11;;;;;;;73.85;39.38;;;4.70;99.90;;;;;;4997392;28;20038;-79
2024/01/14 03:36:37;;;;;;;75.75;39.85;;;4.70;99.90;;;;;;4996877;28;20070;-79
2024/01/14 03:39:06;;;;;;;78.32;42.83;;;4.70;99.90;;;;;;5001075;28;20034;-80
2024/01/14 03:41:32;;;;;;;80.85;41.00;;;4.70;99.90;;;;;;5001091;28;20547;-80
2024/01/14 03:43:58;;;;;;;85.93;43.45;;;4.70;99.90;;;;;;5009394;28;20050;-82
2024/01/14 03:46:24;;;;;;;86.93;42.90;;;4.70;99.90;;;;;;5015925;28;20068;-83
2024/01/14 03:48:49;;;;;;;81.00;41.25;;;4.60;99.90;;;;;;5014889;28;20373;-80
2024/01/14 03:51:15;;;;;;;86.72;44.15;;;4.60;99.90;;;;;;5004602;28;20464;-80
2024/01/14 03:53:41;;;;;;;78.70;39.58;;;4.60;99.90;;;;;;4996694;28;20029;-81
2024/01/14 03:56:06;;;;;;;80.95;40.50;;;4.50;99.90;;;;;;4998195;28;20392;-81
2024/01/14 03:58:32;;;;;;;87.30;42.88;;;4.50;99.90;;;;;;5005647;28;20076;-81
2024/01/14 04:00:58;;;;;;;88.45;43.67;;;4.40;99.90;;;;;;4999518;28;20061;-80
2024/01/14 04:03:23;;;;;;;89.20;42.85;;;4.30;99.90;;;;;;5000298;28;20101;-81
2024/01/14 04:05:49;;;;;;;84.10;42.15;;;4.30;99.90;;;;;;4997694;28;20038;-80
2024/01/14 04:08:15;;;;;;;80.63;40.60;;;4.30;99.90;;;;;;4982519;28;20022;-80
2024/01/14 04:10:40;;;;;;;79.78;40.78;;;4.30;99.90;;;;;;4996665;28;20065;-79
2024/01/14 04:13:06;;;;;;;87.25;41.53;;;4.30;99.90;;;;;;4979773;28;20035;-79
2024/01/14 04:15:32;;;;;;;82.07;41.15;;;4.30;99.90;;;;;;5000971;28;20042;-81
2024/01/14 04:17:57;;;;;;;74.32;38.85;;;4.30;99.90;;;;;;5013925;28;20039;-80
2024/01/14 04:20:24;;;;;;;84.85;41.67;;;4.30;99.90;;;;;;4996039;28;20524;-79
2024/01/14 04:22:49;;;;;;;85.68;41.30;;;4.30;99.90;;;;;;4995351;28;20030;-79
2024/01/14 04:25:15;;;;;;;82.57;41.45;;;4.20;99.90;;;;;;5000028;28;20386;-80
2024/01/14 04:27:41;;;;;;;81.57;42.92;;;4.20;99.90;;;;;;4998137;28;20040;-80
2024/01/14 04:30:07;;;;;;;83.13;41.70;;;4.10;99.90;;;;;;5006134;28;20034;-80
2024/01/14 04:32:33;;;;;;;84.03;42.00;;;4.20;99.90;;;;;;4995663;28;20034;-78
2024/01/14 04:34:59;;;;;;;86.75;42.55;;;4.20;99.90;;;;;;4979350;28;20089;-82
2024/01/14 04:37:25;;;;;;;89.43;44.17;;;4.30;99.90;;;;;;4996302;28;20088;-84
2024/01/14 04:39:50;;;;;;;90.53;42.17;;;4.30;99.90;;;;;;4979170;28;20121;-84
2024/01/14 04:42:16;;;;;;;96.68;44.33;;;4.20;99.90;;;;;;5002456;28;20425;-79
2024/01/14 04:44:42;;;;;;;88.43;43.20;;;4.20;99.90;;;;;;5007697;28;20037;-79
2024/01/14 04:47:08;;;;;;;87.13;42.85;;;4.20;99.90;;;;;;4995812;28;20046;-80
2024/01/14 04:49:33;;;;;;;88.43;42.75;;;4.20;99.90;;;;;;4979903;28;20465;-81
2024/01/14 04:51:59;;;;;;;88.80;43.33;;;4.20;99.90;;;;;;4978602;28;20030;-78
2024/01/14 04:54:25;;;;;;;91.07;44.80;;;4.20;99.90;;;;;;4995117;28;20023;-78
2024/01/14 04:56:52;;;;;;;90.18;42.80;;;4.20;99.90;;;;;;4978125;28;20464;-80
2024/01/14 04:59:17;;;;;;;84.35;41.78;;;4.20;99.90;;;;;;4997312;28;20050;-80
2024/01/14 05:01:43;;;;;;;87.15;43.40;;;4.20;99.90;;;;;;4978249;28;20473;-78
2024/01/14 05:04:09;;;;;;;84.43;41.38;;;4.10;99.90;;;;;;4995628;28;20031;-77
2024/01/14 05:06:37;;;;;;;85.80;41.85;;;4.20;99.90;;;;;;4996898;28;20057;-78
2024/01/14 05:09:03;;;;;;;91.32;43.00;;;4.10;99.90;;;;;;4997152;28;20034;-80
2024/01/14 05:11:29;;;;;;;82.93;41.30;;;4.10;99.90;;;;;;4995367;28;20038;-80
2024/01/14 05:13:54;;;;;;;81.43;41.08;;;4.10;99.90;;;;;;4996150;28;20034;-80
2024/01/14 05:16:20;;;;;;;88.82;42.70;;;4.10;99.90;;;;;;4994950;28;20491;-80
2024/01/14 05:18:46;;;;;;;82.53;42.38;;;4.10;99.90;;;;;;4994446;28;20501;-79
2024/01/14 05:21:16;;;;;;;83.75;40.63;;;4.10;99.90;;;;;;4994043;28;20030;-80
2024/01/14 05:23:42;;;;;;;85.47;41.13;;;4.10;99.90;;;;;;4994258;28;20026;-80
2024/01/14 05:26:08;;;;;;;82.95;40.85;;;4.10;99.90;;;;;;4996859;28;20042;-81
2024/01/14 05:28:33;;;;;;;80.72;41.38;;;4.10;99.90;;;;;;4995266;28;20084;-80
2024/01/14 05:30:59;;;;;;;79.63;40.67;;;4.20;99.90;;;;;;4979755;28;20038;-80
2024/01/14 05:33:25;;;;;;;81.13;40.78;;;4.10;99.90;;;;;;4994940;28;20045;-78
2024/01/14 05:35:51;;;;;;;80.53;40.38;;;4.10;99.90;;;;;;4995028;28;20039;-80
2024/01/14 05:38:17;;;;;;;78.25;39.42;;;4.10;99.90;;;;;;4993918;28;20527;-79
2024/01/14 05:40:42;;;;;;;76.82;39.60;;;4.20;99.90;;;;;;4999517;28;20034;-79
2024/01/14 05:43:08;;;;;;;84.57;40.10;;;4.10;99.90;;;;;;4994173;28;20034;-79
2024/01/14 05:45:34;;;;;;;78.95;39.70;;;4.10;99.90;;;;;;4981616;28;20109;-82
2024/01/14 05:47:59;;;;;;;83.57;41.05;;;4.10;99.90;;;;;;4994986;28;20433;-80
2024/01/14 05:50:25;;;;;;;79.78;39.50;;;4.20;99.90;;;;;;4995014;28;20030;-81
2024/01/14 05:52:50;;;;;;;77.38;38.40;;;4.10;99.90;;;;;;4993974;28;20034;-80
2024/01/14 05:55:16;;;;;;;76.13;37.30;;;4.10;99.90;;;;;;4993638;28;20469;-80
2024/01/14 05:57:42;;;;;;;76.25;37.40;;;4.10;99.90;;;;;;4976825;28;20042;-80
2024/01/14 06:00:08;;;;;;;73.63;37.03;;;4.20;99.90;;;;;;4995378;28;20038;-79
2024/01/14 06:02:34;;;;;;;71.03;35.45;;;4.10;99.90;;;;;;4996406;28;20037;-80
2024/01/14 06:04:59;;;;;;;73.75;36.60;;;4.10;99.90;;;;;;4996997;28;20034;-79
2024/01/14 06:07:25;;;;;;;67.57;34.95;;;4.10;99.90;;;;;;4994850;28;20113;-79
2024/01/14 06:09:50;;;;;;;70.30;35.50;;;4.20;99.90;;;;;;4993207;28;20030;-78
2024/01/14 06:12:16;;;;;;;66.00;34.53;;;4.20;99.90;;;;;;4995614;28;20441;-80
2024/01/14 06:14:42;;;;;;;67.18;33.60;;;4.20;99.90;;;;;;4997017;28;20035;-80
2024/01/14 06:17:08;;;;;;;65.80;32.75;;;4.10;99.90;;;;;;4979505;28;20034;-79
2024/01/14 06:19:34;;;;;;;61.72;31.67;;;4.10;99.90;;;;;;4998790;28;20062;-83
2024/01/14 06:22:00;;;;;;;69.38;33.90;;;4.00;99.90;;;;;;4993813;28;20338;-80
2024/01/14 06:24:26;;;;;;;61.28;31.65;;;4.00;99.90;;;;;;4995388;28;20061;-81
2024/01/14 06:26:52;;;;;;;65.70;33.05;;;4.00;99.90;;;;;;4995050;28;20030;-80
2024/01/14 06:29:18;;;;;;;60.05;32.38;;;4.00;99.90;;;;;;4994063;28;20030;-79
2024/01/14 06:31:47;;;;;;;67.57;32.50;;;4.00;99.90;;;;;;4992923;28;20465;-80
2024/01/14 06:34:13;;;;;;;64.82;32.40;;;4.00;99.90;;;;;;4994107;28;20053;-80
2024/01/14 06:36:39;;;;;;;68.43;34.38;;;4.00;99.90;;;;;;4992967;28;20038;-80
2024/01/14 06:39:07;;;;;;;66.85;32.85;;;3.90;99.90;;;;;;4993909;28;20038;-79
2024/01/14 06:41:34;;;;;;;71.15;34.20;;;3.90;99.90;;;;;;4994541;28;20034;-80
2024/01/14 06:43:59;;;;;;;66.68;32.40;;;3.80;99.90;;;;;;4993172;28;20041;-81
2024/01/14 06:46:25;;;;;;;73.25;33.72;;;3.80;99.90;;;;;;4976873;28;20133;-79
2024/01/14 06:48:51;;;;;;;62.75;32.70;;;3.80;99.90;;;;;;4993057;28;20385;-83
2024/01/14 06:51:17;;;;;;;68.25;34.85;;;3.80;99.90;;;;;;5000217;28;20065;-79
2024/01/14 06:53:42;;;;;;;64.47;33.30;;;3.80;99.90;;;;;;5003051;28;20064;-79
2024/01/14 06:56:08;;;;;;;66.30;33.08;;;3.80;99.90;;;;;;5001261;28;20381;-80
2024/01/14 06:58:34;;;;;;;68.38;33.55;;;3.80;99.90;;;;;;4999099;28;20422;-82
2024/01/14 07:01:00;;;;;;;67.38;33.95;;;3.80;99.90;;;;;;4977272;28;20125;-82
2024/01/14 07:03:26;;;;;;;66.53;33.17;;;3.80;99.90;;;;;;4994900;28;20108;-81
2024/01/14 07:05:51;;;;;;;65.88;31.80;;;3.70;99.90;;;;;;4977832;28;20177;-81
2024/01/14 07:08:18;;;;;;;70.20;33.90;;;3.80;99.90;;;;;;5001162;28;20532;-81
2024/01/14 07:10:43;;;;;;;72.30;34.38;;;3.80;99.90;;;;;;4996831;28;20036;-80
2024/01/14 07:13:09;;;;;;;74.18;34.58;;;3.90;99.90;;;;;;4997990;28;20101;-81
2024/01/14 07:15:34;;;;;;;66.20;34.33;;;3.90;99.90;;;;;;4997493;28;20042;-80
2024/01/14 07:18:02;;;;;;;70.35;34.95;;;3.80;99.90;;;;;;4980138;28;20448;-80
2024/01/14 07:20:27;;;;;;;69.50;35.97;;;3.90;99.90;;;;;;4997420;28;20125;-80
2024/01/14 07:22:53;;;;;;;78.22;36.35;;;3.80;99.90;;;;;;4997385;28;20069;-79
2024/01/14 07:25:19;;;;;;;71.38;37.20;;;3.80;99.90;;;;;;4997263;28;20101;-81
2024/01/14 07:27:45;;;;;;;72.32;36.33;;;3.70;99.90;;;;;;4979910;28;20388;-79
2024/01/14 07:30:10;;;;;;;80.05;39.17;;;3.70;99.90;;;;;;4996777;28;20030;-80
2024/01/14 07:32:36;;;;;;;83.25;42.13;;;3.70;99.90;;;;;;4997401;28;20034;-80
2024/01/14 07:35:02;;;;;;;86.35;41.05;;;3.70;99.90;;;;;;4996382;28;20536;-80
2024/01/14 07:37:30;;;;;;;84.50;39.92;;;3.60;99.90;;;;;;4996186;28;20057;-80
2024/01/14 07:39:56;;;;;;;83.53;40.92;;;3.70;99.90;;;;;;4997126;28;20045;-80
2024/01/14 07:42:21;;;;;;;91.38;41.83;;;3.70;99.90;;;;;;4996995;28;20031;-80
2024/01/14 07:44:47;;;;;;;83.97;39.85;;;3.70;99.90;;;;;;4997739;28;20109;-82
2024/01/14 07:47:13;;;;;;;89.78;42.33;;;3.80;99.90;;;;;;4983456;28;20155;-80
2024/01/14 07:49:38;;;;;;;87.15;42.10;;;3.80;99.90;;;;;;4997555;28;20045;-78
2024/01/14 07:52:05;;;;;;;85.30;41.90;;;3.80;99.90;;;;;;4999545;28;20026;-77
2024/01/14 07:54:30;;;;;;;83.97;41.60;;;3.70;99.90;;;;;;4996871;28;20031;-75
2024/01/14 07:56:56;;;;;;;86.47;42.17;;;3.70;99.90;;;;;;4995152;28;20501;-76
2024/01/14 07:59:23;;;;;;;85.97;41.72;;;3.70;99.90;;;;;;4996071;28;20461;-76
2024/01/14 08:01:49;;;;;;;92.05;43.65;;;3.80;99.90;;;;;;4997196;28;20041;-75
2024/01/14 08:04:15;;;;;;;81.18;41.25;;;3.80;99.90;;;;;;4995325;28;20026;-75
2024/01/14 08:06:40;;;;;;;79.47;40.83;;;3.80;99.90;;;;;;4996585;28;20362;-70
2024/01/14 08:09:06;;;;;;;84.78;43.10;;;3.80;99.90;;;;;;4979879;28;20461;-71
2024/01/14 08:11:32;;;;;;;79.85;39.60;;;3.80;99.90;;;;;;4996171;28;20465;-70
2024/01/14 08:13:58;;;;;;;78.63;40.05;;;3.80;99.90;;;;;;4996713;28;20030;-74
2024/01/14 08:16:24;;;;;;;84.60;41.80;;;3.90;99.90;;;;;;4995797;28;20496;-73
2024/01/14 08:18:49;;;;;;;84.88;41.72;;;4.00;99.90;;;;;;4995297;28;20026;-72
2024/01/14 08:21:15;;;;;;;85.13;42.22;;;4.00;99.90;;;;;;4994972;28;20027;-70
2024/01/14 08:23:41;;;;;;;86.97;41.92;;;4.00;99.90;;;;;;4996041;28;20457;-74
2024/01/14 08:26:07;;;;;;;81.55;40.38;;;4.00;99.90;;;;;;4996803;28;20476;-71
2024/01/14 08:28:35;;;;;;;80.15;39.67;;;4.00;99.90;;;;;;4996102;28;20038;-71
2024/01/14 08:31:01;;;;;;;80.20;40.28;;;4.00;99.90;;;;;;4996273;28;20126;-71
2024/01/14 08:33:27;;;;;;;80.05;40.63;;;4.00;99.90;;;;;;4996233;28;20109;-71
2024/01/14 08:35:54;;;;;;;82.80;41.50;;;3.90;99.90;;;;;;4995923;28;20038;-73
2024/01/14 08:38:20;;;;;;;80.43;39.30;;;3.90;99.90;;;;;;4996475;28;20045;-72
2024/01/14 08:40:46;;;;;;;85.95;40.20;;;3.90;99.90;;;;;;4994576;28;20030;-71
2024/01/14 08:43:12;;;;;;;79.45;39.65;;;3.90;99.90;;;;;;4994844;28;20041;-70
2024/01/14 08:45:38;;;;;;;81.88;40.08;;;3.90;99.90;;;;;;4995326;28;20520;-70
2024/01/14 08:48:06;;;;;;;78.53;39.42;;;3.80;99.90;;;;;;4995838;28;20037;-71
2024/01/14 08:50:32;;;;;;;82.82;40.30;;;3.80;99.90;;;;;;4995728;28;20140;-71
2024/01/14 08:52:58;;;;;;;83.82;40.92;;;3.80;99.90;;;;;;4995778;28;20030;-71
2024/01/14 08:55:24;;;;;;;84.80;41.58;;;3.80;99.90;;;;;;4994257;28;20173;-70
2024/01/14 08:57:50;;;;;;;80.95;41.33;;;3.80;99.90;;;;;;4994266;28;20041;-70
2024/01/14 09:00:16;;;;;;;79.78;40.08;;;3.90;99.90;;;;;;4995870;28;20385;-71
2024/01/14 09:02:41;;;;;;;85.82;42.30;;;3.90;99.90;;;;;;4995593;28;20432;-71
2024/01/14 09:05:07;;;;;;;87.10;43.47;;;4.00;99.90;;;;;;4995206;28;20085;-75
2024/01/14 09:07:36;;;;;;;79.60;40.08;;;4.00;99.90;;;;;;4994387;28;20042;-73
2024/01/14 09:10:02;;;;;;;80.15;40.25;;;4.00;99.90;;;;;;4995109;28;20030;-70
2024/01/14 09:12:28;;;;;;;86.55;41.25;;;4.00;99.90;;;;;;4995006;28;20052;-70
2024/01/14 09:14:54;;;;;;;78.13;41.53;;;4.00;99.90;;;;;;4995353;28;20073;-71
2024/01/14 09:17:20;;;;;;;85.88;42.25;;;4.10;99.90;;;;;;4995145;28;20041;-71
2024/01/14 09:19:45;;;;;;;104.18;44.70;;;4.10;99.90;;;;;;4995173;28;20030;-71
2024/01/14 09:22:11;;;;;;;96.43;44.35;;;4.00;99.90;;;;;;4994846;28;20030;-75
2024/01/14 09:24:37;;;;;;;87.85;44.20;;;4.00;99.90;;;;;;4995268;28;20113;-73
2024/01/14 09:27:03;;;;;;;92.50;43.03;;;4.10;99.90;;;;;;4993968;28;20037;-74
2024/01/14 09:29:29;;;;;;;94.13;44.05;;;4.10;99.90;;;;;;4993287;28;20480;-73
2024/01/14 09:31:55;;;;;;;83.80;39.83;;;4.00;99.90;;;;;;4994952;28;20109;-76
2024/01/14 09:34:21;;;;;;;82.47;40.60;;;4.10;99.90;;;;;;4994681;28;20421;-77
2024/01/14 09:36:46;;;;;;;78.80;39.55;;;4.10;99.90;;;;;;4994843;28;20125;-76
2024/01/14 09:39:13;;;;;;;77.65;38.97;;;4.10;99.90;;;;;;4994840;28;20108;-76
2024/01/14 09:41:55;;;;;;;79.68;36.60;;;4.10;99.90;;;;;;4995312;28;20380;-76
2024/01/14 09:44:21;;;;;;;81.07;38.05;;;4.20;99.90;;;;;;4994828;28;20453;-76
2024/01/14 09:46:47;;;;;;;73.95;37.83;;;4.20;99.90;;;;;;4994981;28;20050;-76
2024/01/14 09:49:15;;;;;;;78.15;37.67;;;4.20;99.90;;;;;;4994995;28;20476;-77
2024/01/14 09:51:41;;;;;;;71.10;36.10;;;4.10;99.90;;;;;;4993308;28;20034;-76
2024/01/14 09:54:07;;;;;;;68.97;34.90;;;4.10;99.90;;;;;;4994695;28;20026;-76
2024/01/14 09:56:34;;;;;;;75.45;37.72;;;4.00;99.90;;;;;;4994076;28;20445;-76
2024/01/14 09:59:02;;;;;;;71.72;37.10;;;4.10;99.90;;;;;;4993536;28;20042;-75
2024/01/14 10:01:33;;;;;;;74.60;38.10;;;4.00;99.90;;;;;;4994524;28;20029;-76
2024/01/14 10:04:03;;;;;;;72.90;36.05;;;4.00;99.90;;;;;;4994475;28;20158;-76
2024/01/14 10:06:29;;;;;;;77.95;39.22;;;4.00;99.90;;;;;;4994427;28;20038;-76
2024/01/14 10:08:55;;;;;;;79.78;38.97;;;4.00;99.90;;;;;;4994494;28;20034;-75
2024/01/14 10:11:21;;;;;;;73.25;37.78;;;4.10;99.90;;;;;;4994483;28;20026;-75
2024/01/14 10:13:48;;;;;;;75.05;38.53;;;4.10;99.90;;;;;;4994556;28;20372;-76
2024/01/14 10:16:14;;;;;;;76.65;38.63;;;4.10;99.90;;;;;;4992938;28;20042;-77
2024/01/14 10:18:40;;;;;;;70.90;37.95;;;4.20;99.90;;;;;;4993972;28;20065;-76
2024/01/14 10:21:06;;;;;;;72.05;37.67;;;4.20;99.90;;;;;;4994219;28;20058;-76
2024/01/14 10:23:32;;;;;;;71.25;37.38;;;4.20;99.90;;;;;;4993118;28;20548;-77
2024/01/14 10:26:01;;;;;;;71.93;36.67;;;4.30;99.90;;;;;;4992639;28;20493;-77
2024/01/14 10:28:37;;;;;;;75.50;39.63;;;4.30;99.90;;;;;;4994256;28;20037;-74
2024/01/14 10:31:06;;;;;;;78.80;38.78;;;4.30;99.90;;;;;;4992852;28;20105;-75
2024/01/14 10:33:33;;;;;;;70.70;37.72;;;4.40;99.90;;;;;;4994143;28;20031;-75
2024/01/14 10:36:00;;;;;;;69.45;36.40;;;4.30;99.90;;;;;;4992787;28;20452;-75
2024/01/14 10:38:26;;;;;;;78.35;40.05;;;4.30;99.90;;;;;;4993941;28;20053;-75
2024/01/14 10:40:52;;;;;;;71.03;38.47;;;4.30;99.90;;;;;;4994114;28;20480;-75
2024/01/14 10:43:23;;;;;;;78.72;40.17;;;4.30;99.90;;;;;;4996670;28;20029;-75
2024/01/14 10:45:50;;;;;;;76.28;38.60;;;4.30;99.90;;;;;;4997353;28;20034;-75
2024/01/14 10:48:22;;;;;;;79.03;38.60;;;4.30;99.90;;;;;;4997936;28;20041;-73
2024/01/14 10:50:55;;;;;;;80.57;40.03;;;4.30;99.90;;;;;;4998261;28;20146;-75
2024/01/14 10:53:23;;;;;;;74.88;38.22;;;4.40;99.90;;;;;;4998094;28;20076;-76
2024/01/14 10:55:56;;;;;;;77.53;39.25;;;4.30;99.90;;;;;;4996422;28;20042;-75
2024/01/14 10:58:26;;;;;;;77.43;39.53;;;4.30;99.90;;;;;;4998366;28;20022;-75
2024/01/14 11:01:00;;;;;;;77.55;39.25;;;4.30;99.90;;;;;;4997967;28;20088;-75
2024/01/14 11:03:27;;;;;;;75.93;37.83;;;4.30;99.90;;;;;;4997862;28;20098;-75
2024/01/14 11:05:54;;;;;;;68.78;35.78;;;4.20;99.90;;;;;;4997710;28;20034;-75
2024/01/14 11:08:21;;;;;;;77.90;38.72;;;4.20;99.90;;;;;;4997401;28;20035;-75
2024/01/14 11:10:47;;;;;;;78.70;38.20;;;4.30;99.90;;;;;;4997669;28;20023;-75
2024/01/14 11:13:45;;;;;;;75.05;38.03;;;4.30;99.90;;;;;;4996632;28;20034;-75
2024/01/14 11:16:21;;;;;;;83.28;39.13;;;4.40;99.90;;;;;;4986535;28;20046;-75
2024/01/14 11:18:54;;;;;;;80.28;39.97;;;4.40;99.90;;;;;;4997367;28;20062;-74
2024/01/14 11:21:39;;;;;;;73.93;38.15;;;4.40;99.90;;;;;;4997002;28;20507;-75
2024/01/14 11:24:06;;;;;;;81.38;38.80;;;4.40;99.90;;;;;;4996999;28;20030;-75
2024/01/14 11:26:31;;;;;;;73.57;38.15;;;4.50;99.90;;;;;;4997617;28;20030;-75
2024/01/14 11:29:00;;;;;;;72.30;37.72;;;4.50;99.90;;;;;;4995966;28;20384;-76
2024/01/14 11:32:03;;;;;;;73.63;38.30;;;4.40;99.90;;;;;;4997119;28;20022;-76
2024/01/14 11:34:47;;;;;;;74.28;36.75;;;4.50;99.90;;;;;;4996046;28;20053;-75
2024/01/14 11:37:47;;;;;;;72.63;36.08;;;4.50;99.90;;;;;;4997040;28;20117;-76
2024/01/14 11:40:25;;;;;;;73.68;37.47;;;4.50;99.90;;;;;;4995502;28;20030;-74
2024/01/14 11:42:57;;;;;;;73.88;36.42;;;4.50;99.90;;;;;;4997254;28;20026;-76
2024/01/14 11:45:23;;;;;;;79.10;38.30;;;4.50;99.90;;;;;;4996321;28;20034;-76
2024/01/14 11:47:50;;;;;;;72.43;37.03;;;4.50;99.90;;;;;;4996842;28;20372;-76
2024/01/14 11:50:18;;;;;;;71.50;34.72;;;4.50;99.90;;;;;;4979389;28;20069;-76
2024/01/14 11:52:52;;;;;;;69.95;35.60;;;4.50;99.90;;;;;;4995297;28;20061;-77
2024/01/14 11:55:25;;;;;;;70.43;34.80;;;4.50;99.90;;;;;;4996470;28;20555;-77
2024/01/14 11:57:51;;;;;;;;;;;4.50;99.90;;;;;;4997298;28;20030;-75
2024/01/14 12:00:22;;;;;;;68.80;33.55;;;4.60;99.90;;;;;;4996661;28;19913;-75
2024/01/14 12:02:47;;;;;;;61.33;32.20;;;4.60;99.90;;;;;;4996544;28;20465;-76
2024/01/14 12:05:21;;;;;;;63.13;33.17;;;4.60;99.90;;;;;;4996281;28;20042;-76
2024/01/14 12:07:48;;;;;;;65.13;32.30;;;4.60;99.90;;;;;;4996206;28;20034;-75
2024/01/14 12:10:20;;;;;;;63.38;32.78;;;4.60;99.90;;;;;;4995104;28;20033;-76
2024/01/14 12:12:46;;;;;;;64.70;33.27;;;4.60;99.90;;;;;;4996199;28;20031;-76
2024/01/14 12:15:14;;;;;;;60.15;30.30;;;4.70;99.90;;;;;;4996091;28;20499;-76
2024/01/14 12:17:40;;;;;;;58.40;29.42;;;4.60;99.90;;;;;;4996352;28;20035;-77
2024/01/14 12:20:08;;;;;;;57.28;30.17;;;4.60;99.90;;;;;;4996363;28;20058;-76
2024/01/14 12:22:35;;;;;;;60.80;30.45;;;4.60;99.90;;;;;;4996272;28;20129;-77
2024/01/14 12:25:01;;;;;;;60.90;31.25;;;4.60;99.90;;;;;;4996057;28;20057;-77
2024/01/14 12:27:27;;;;;;;58.38;29.85;;;4.60;99.90;;;;;;4996188;28;20101;-76
2024/01/14 12:29:54;;;;;;;56.08;29.55;;;4.60;99.90;;;;;;4996176;28;20109;-77
2024/01/14 12:32:20;;;;;;;54.45;29.10;;;4.60;99.90;;;;;;4994860;28;20035;-76
2024/01/14 12:34:49;;;;;;;56.35;29.10;;;4.60;99.90;;;;;;4995381;28;20037;-76
2024/01/14 12:37:15;;;;;;;54.28;27.80;;;4.60;99.90;;;;;;4996349;28;20038;-76